sensor_id;sensor_type;location;lat;lon;timestamp;P1;durP1;ratioP1;P2;durP2;ratioP2
22017;SDS011;11173;51.050;7.108;2023-09-08T00:02:51;2.38;;;2.17;;
22017;SDS011;11173;51.050;7.108;2023-09-08T00:12:51;2.28;;;2.10;;
22017;SDS011;11173;51.050;7.108;2023-09-08T00:22:52;2.22;;;1.90;;
22017;SDS011;11173;51.050;7.108;2023-09-08T00:32:52;2.17;;;2.08;;
22017;SDS011;11173;51.050;7.108;2023-09-08T00:42:53;2.35;;;2.15;;
22017;SDS011;11173;51.050;7.108;2023-09-08T00:52:53;1.70;;;1.60;;
22017;SDS011;11173;51.050;7.108;2023-09-08T01:02:53;1.98;;;1.80;;
22017;SDS011;11173;51.050;7.108;2023-09-08T01:12:54;1.80;;;1.70;;
22017;SDS011;11173;51.050;7.108;2023-09-08T01:33:19;2.50;;;1.98;;
22017;SDS011;11173;51.050;7.108;2023-09-08T01:43:21;1.70;;;1.60;;
22017;SDS011;11173;51.050;7.108;2023-09-08T01:53:22;2.40;;;1.60;;
22017;SDS011;11173;51.050;7.108;2023-09-08T02:03:22;2.08;;;1.95;;
22017;SDS011;11173;51.050;7.108;2023-09-08T02:13:23;3.08;;;1.80;;
22017;SDS011;11173;51.050;7.108;2023-09-08T02:23:23;2.08;;;1.85;;
22017;SDS011;11173;51.050;7.108;2023-09-08T02:33:23;1.92;;;1.83;;
22017;SDS011;11173;51.050;7.108;2023-09-08T02:43:24;2.15;;;1.95;;
22017;SDS011;11173;51.050;7.108;2023-09-08T02:53:24;1.90;;;1.80;;
22017;SDS011;11173;51.050;7.108;2023-09-08T03:03:28;2.67;;;1.70;;
22017;SDS011;11173;51.050;7.108;2023-09-08T03:13:28;2.33;;;2.13;;
22017;SDS011;11173;51.050;7.108;2023-09-08T03:23:29;1.90;;;1.80;;
22017;SDS011;11173;51.050;7.108;2023-09-08T03:33:29;2.28;;;2.08;;
22017;SDS011;11173;51.050;7.108;2023-09-08T03:43:30;3.72;;;2.47;;
22017;SDS011;11173;51.050;7.108;2023-09-08T03:53:30;2.58;;;2.22;;
22017;SDS011;11173;51.050;7.108;2023-09-08T04:03:31;1.90;;;1.80;;
22017;SDS011;11173;51.050;7.108;2023-09-08T04:13:31;1.80;;;1.70;;
22017;SDS011;11173;51.050;7.108;2023-09-08T04:23:31;2.17;;;1.98;;
22017;SDS011;11173;51.050;7.108;2023-09-08T04:33:32;2.28;;;2.08;;
22017;SDS011;11173;51.050;7.108;2023-09-08T04:43:32;3.03;;;2.25;;
22017;SDS011;11173;51.050;7.108;2023-09-08T04:53:32;2.90;;;1.88;;
22017;SDS011;11173;51.050;7.108;2023-09-08T05:03:33;3.45;;;1.92;;
22017;SDS011;11173;51.050;7.108;2023-09-08T05:13:33;2.00;;;1.90;;
22017;SDS011;11173;51.050;7.108;2023-09-08T05:23:33;2.33;;;2.10;;
22017;SDS011;11173;51.050;7.108;2023-09-08T05:33:34;3.00;;;2.08;;
22017;SDS011;11173;51.050;7.108;2023-09-08T05:43:34;2.00;;;1.80;;
22017;SDS011;11173;51.050;7.108;2023-09-08T05:53:35;1.90;;;1.63;;
22017;SDS011;11173;51.050;7.108;2023-09-08T06:03:35;1.70;;;1.60;;
22017;SDS011;11173;51.050;7.108;2023-09-08T06:13:36;1.92;;;1.83;;
22017;SDS011;11173;51.050;7.108;2023-09-08T06:23:36;2.35;;;1.85;;
22017;SDS011;11173;51.050;7.108;2023-09-08T06:33:36;2.03;;;1.92;;
22017;SDS011;11173;51.050;7.108;2023-09-08T06:43:37;1.88;;;1.77;;
22017;SDS011;11173;51.050;7.108;2023-09-08T06:53:38;2.17;;;2.05;;
22017;SDS011;11173;51.050;7.108;2023-09-08T07:03:38;1.65;;;1.55;;
22017;SDS011;11173;51.050;7.108;2023-09-08T07:13:39;1.63;;;1.52;;
22017;SDS011;11173;51.050;7.108;2023-09-08T07:23:39;1.55;;;1.38;;
22017;SDS011;11173;51.050;7.108;2023-09-08T07:33:39;1.52;;;1.42;;
22017;SDS011;11173;51.050;7.108;2023-09-08T07:43:40;1.38;;;1.27;;
22017;SDS011;11173;51.050;7.108;2023-09-08T07:53:40;1.15;;;1.15;;
22017;SDS011;11173;51.050;7.108;2023-09-08T08:03:41;1.73;;;0.73;;
22017;SDS011;11173;51.050;7.108;2023-09-08T08:13:41;1.30;;;1.20;;
22017;SDS011;11173;51.050;7.108;2023-09-08T08:23:41;1.10;;;1.00;;
22017;SDS011;11173;51.050;7.108;2023-09-08T08:33:42;1.00;;;1.00;;
22017;SDS011;11173;51.050;7.108;2023-09-08T08:43:43;0.60;;;0.60;;
22017;SDS011;11173;51.050;7.108;2023-09-08T08:53:45;1.15;;;1.08;;
22017;SDS011;11173;51.050;7.108;2023-09-08T09:03:46;0.57;;;0.57;;
22017;SDS011;11173;51.050;7.108;2023-09-08T09:13:49;0.70;;;0.70;;
22017;SDS011;11173;51.050;7.108;2023-09-08T09:23:49;0.70;;;0.70;;
22017;SDS011;11173;51.050;7.108;2023-09-08T09:34:00;0.90;;;0.90;;
22017;SDS011;11173;51.050;7.108;2023-09-08T09:44:04;0.65;;;0.65;;
22017;SDS011;11173;51.050;7.108;2023-09-08T09:54:05;0.82;;;0.82;;
22017;SDS011;11173;51.050;7.108;2023-09-08T10:04:06;1.02;;;1.02;;
22017;SDS011;11173;51.050;7.108;2023-09-08T10:14:07;0.65;;;0.63;;
22017;SDS011;11173;51.050;7.108;2023-09-08T10:34:14;1.33;;;1.23;;
22017;SDS011;11173;51.050;7.108;2023-09-08T10:44:16;1.45;;;1.35;;
22017;SDS011;11173;51.050;7.108;2023-09-08T11:04:47;0.63;;;0.63;;
22017;SDS011;11173;51.050;7.108;2023-09-08T11:14:49;1.03;;;0.93;;
22017;SDS011;11173;51.050;7.108;2023-09-08T11:24:49;1.02;;;0.93;;
22017;SDS011;11173;51.050;7.108;2023-09-08T11:34:50;1.33;;;1.25;;
22017;SDS011;11173;51.050;7.108;2023-09-08T11:44:50;1.52;;;1.42;;
22017;SDS011;11173;51.050;7.108;2023-09-08T11:54:51;1.15;;;1.05;;
22017;SDS011;11173;51.050;7.108;2023-09-08T12:04:55;1.00;;;1.00;;
22017;SDS011;11173;51.050;7.108;2023-09-08T12:14:56;1.85;;;1.75;;
22017;SDS011;11173;51.050;7.108;2023-09-08T12:24:56;1.67;;;1.58;;
22017;SDS011;11173;51.050;7.108;2023-09-08T12:34:58;2.22;;;1.20;;
22017;SDS011;11173;51.050;7.108;2023-09-08T12:45:00;0.77;;;0.77;;
22017;SDS011;11173;51.050;7.108;2023-09-08T12:55:01;1.10;;;1.10;;
22017;SDS011;11173;51.050;7.108;2023-09-08T13:05:02;0.50;;;0.50;;
22017;SDS011;11173;51.050;7.108;2023-09-08T13:15:02;0.85;;;0.85;;
22017;SDS011;11173;51.050;7.108;2023-09-08T13:25:03;0.80;;;0.80;;
22017;SDS011;11173;51.050;7.108;2023-09-08T13:35:04;0.50;;;0.50;;
22017;SDS011;11173;51.050;7.108;2023-09-08T13:45:06;1.13;;;1.05;;
22017;SDS011;11173;51.050;7.108;2023-09-08T13:55:06;1.07;;;1.00;;
22017;SDS011;11173;51.050;7.108;2023-09-08T14:05:07;0.90;;;0.90;;
22017;SDS011;11173;51.050;7.108;2023-09-08T14:15:07;0.63;;;0.63;;
22017;SDS011;11173;51.050;7.108;2023-09-08T14:25:08;2.15;;;1.20;;
22017;SDS011;11173;51.050;7.108;2023-09-08T14:35:09;1.35;;;1.20;;
22017;SDS011;11173;51.050;7.108;2023-09-08T14:45:09;0.85;;;0.85;;
22017;SDS011;11173;51.050;7.108;2023-09-08T14:55:10;0.80;;;0.80;;
22017;SDS011;11173;51.050;7.108;2023-09-08T15:05:11;0.82;;;0.80;;
22017;SDS011;11173;51.050;7.108;2023-09-08T15:15:11;0.50;;;0.50;;
22017;SDS011;11173;51.050;7.108;2023-09-08T15:25:12;6.82;;;1.55;;
22017;SDS011;11173;51.050;7.108;2023-09-08T15:35:13;1.30;;;1.20;;
22017;SDS011;11173;51.050;7.108;2023-09-08T15:45:13;0.60;;;0.60;;
22017;SDS011;11173;51.050;7.108;2023-09-08T15:55:13;0.73;;;0.73;;
22017;SDS011;11173;51.050;7.108;2023-09-08T16:05:14;0.80;;;0.80;;
22017;SDS011;11173;51.050;7.108;2023-09-08T16:15:15;1.10;;;1.10;;
22017;SDS011;11173;51.050;7.108;2023-09-08T16:25:16;1.35;;;1.25;;
22017;SDS011;11173;51.050;7.108;2023-09-08T16:35:17;1.38;;;1.27;;
22017;SDS011;11173;51.050;7.108;2023-09-08T16:45:17;1.13;;;1.13;;
22017;SDS011;11173;51.050;7.108;2023-09-08T16:55:17;0.85;;;0.85;;
22017;SDS011;11173;51.050;7.108;2023-09-08T17:05:18;0.90;;;0.90;;
22017;SDS011;11173;51.050;7.108;2023-09-08T17:15:18;1.05;;;1.00;;
22017;SDS011;11173;51.050;7.108;2023-09-08T17:25:19;1.23;;;1.13;;
22017;SDS011;11173;51.050;7.108;2023-09-08T17:35:19;0.80;;;0.80;;
22017;SDS011;11173;51.050;7.108;2023-09-08T17:45:20;0.88;;;0.88;;
22017;SDS011;11173;51.050;7.108;2023-09-08T17:55:20;0.80;;;0.80;;
22017;SDS011;11173;51.050;7.108;2023-09-08T18:05:21;1.20;;;1.08;;
22017;SDS011;11173;51.050;7.108;2023-09-08T18:15:21;1.35;;;1.20;;
22017;SDS011;11173;51.050;7.108;2023-09-08T18:25:22;1.33;;;1.30;;
22017;SDS011;11173;51.050;7.108;2023-09-08T18:35:22;2.22;;;2.03;;
22017;SDS011;11173;51.050;7.108;2023-09-08T18:45:23;1.70;;;1.60;;
22017;SDS011;11173;51.050;7.108;2023-09-08T18:55:23;2.08;;;1.95;;
22017;SDS011;11173;51.050;7.108;2023-09-08T19:05:24;2.28;;;2.15;;
22017;SDS011;11173;51.050;7.108;2023-09-08T19:15:24;2.38;;;2.10;;
22017;SDS011;11173;51.050;7.108;2023-09-08T19:25:25;2.28;;;1.80;;
22017;SDS011;11173;51.050;7.108;2023-09-08T19:35:25;2.80;;;2.25;;
22017;SDS011;11173;51.050;7.108;2023-09-08T19:45:26;4.43;;;2.30;;
22017;SDS011;11173;51.050;7.108;2023-09-08T19:55:26;2.58;;;2.38;;
22017;SDS011;11173;51.050;7.108;2023-09-08T20:05:27;3.17;;;2.83;;
22017;SDS011;11173;51.050;7.108;2023-09-08T20:15:27;3.60;;;3.28;;
22017;SDS011;11173;51.050;7.108;2023-09-08T20:25:29;2.90;;;2.70;;
22017;SDS011;11173;51.050;7.108;2023-09-08T20:35:29;2.97;;;2.67;;
22017;SDS011;11173;51.050;7.108;2023-09-08T20:45:30;3.13;;;2.83;;
22017;SDS011;11173;51.050;7.108;2023-09-08T20:55:30;2.83;;;2.63;;
22017;SDS011;11173;51.050;7.108;2023-09-08T21:05:30;2.53;;;2.22;;
22017;SDS011;11173;51.050;7.108;2023-09-08T21:15:31;2.20;;;2.10;;
22017;SDS011;11173;51.050;7.108;2023-09-08T21:25:32;2.65;;;2.45;;
22017;SDS011;11173;51.050;7.108;2023-09-08T21:35:33;3.58;;;2.60;;
22017;SDS011;11173;51.050;7.108;2023-09-08T21:45:33;2.72;;;2.38;;
22017;SDS011;11173;51.050;7.108;2023-09-08T21:55:34;2.85;;;2.60;;
22017;SDS011;11173;51.050;7.108;2023-09-08T22:05:34;2.72;;;2.53;;
22017;SDS011;11173;51.050;7.108;2023-09-08T22:15:34;2.65;;;2.45;;
22017;SDS011;11173;51.050;7.108;2023-09-08T22:25:35;2.38;;;2.28;;
22017;SDS011;11173;51.050;7.108;2023-09-08T22:35:35;2.78;;;2.50;;
22017;SDS011;11173;51.050;7.108;2023-09-08T22:45:37;2.63;;;2.42;;
22017;SDS011;11173;51.050;7.108;2023-09-08T22:55:37;2.55;;;2.35;;
22017;SDS011;11173;51.050;7.108;2023-09-08T23:05:37;2.85;;;2.65;;
22017;SDS011;11173;51.050;7.108;2023-09-08T23:15:38;3.55;;;2.55;;
22017;SDS011;11173;51.050;7.108;2023-09-08T23:25:38;2.70;;;2.50;;
22017;SDS011;11173;51.050;7.108;2023-09-08T23:35:40;2.50;;;2.30;;
22017;SDS011;11173;51.050;7.108;2023-09-08T23:45:44;2.97;;;2.78;;
22017;SDS011;11173;51.050;7.108;2023-09-08T23:55:45;2.92;;;2.72;;
